ダッカ の空港の天気 - METARとTAF

シャージャラル国際空港(ダッカ) ( VGHS / DAC ) - バングラデシュ ダッカ
飛行場実況気象(Metar)
観測時間08/17 17:30 BDT (08/17 11:30 UTC)
風向・風速南 3m/s
視程4000m
天気現象煙霧
全天の4割程度の雲 雲底高度 370m
全天の8割程度の雲 雲底高度 3050m
気温31℃
湿度79%
気圧1002hPa
METARVGHS 171130Z 17006KT 4000 HZ SCT012 BKN100 31/27 Q1002 NOSIG
過去の天気等 Google飛行場航空写真 Wunderground天気予報

過去48時間のMETAR

飛行場予報(TAF)
発表時間: 8/17 17:00 BDT (8/17 11:00 UTC)
予報対象時間: 17日18時 BDT ~ 19日0時 BDT
風向・風速南南東 5m/s
視程3500m
天気現象煙霧
全天の4割程度の雲 雲底高度 460m
全天の8割程度の雲 雲底高度 3050m
18日4時 BDT ~ 18日16時 BDT に一時的に
風向・風速南東 13m/s
視程2000m
18日20時 BDT ~ 18日22時 BDT に徐々に
風向・風速南南東 4m/s
視程3500m
天気現象煙霧
全天の4割程度の雲 雲底高度 370m
全天の8割程度の雲 雲底高度 3050m
TAF VGHS 171100Z 1712/1818 16010KT 3500 HZ SCT015 BKN100
TEMPO 1722/1810 14025KT 2000 RA/TSRA BKN007 FEW025CB OVC090
BECMG 1814/1816 16008KT 3500 HZ SCT012 BKN100